• Join FlightAware (Why Join?)
  • Login
  • US Flag 
04:04PM EST


 

Airport Tracker/Info


-or-


 

Live Flight TrackerFlight Track Log ✈ SWA1377 ✈ 23-Aug-2014 ✈ KBUF - KBWI

Flight Track Log - Related Links

Times and Time Zones

All times are in EDT time to prevent confusion due to time zone crossing. See the SWA1377 flight status page for this flight to view local times or setup timezone preferences in your user account.

Time Position Orientation Groundspeed Altitude Reporting Facility
EDT Latitude Longitude Course Direction KTS MPH feet Rate Location/Type
11:14AM 42.9500 -78.7167 142° Southeast 162 186 1,500  Level Buffalo TRACON
11:15AM 42.9847 -78.6700 45° Northeast 173 199 3,300 1,980 Climbing Cleveland Center
11:16AM 42.9344 -78.6256 147° Southeast 250 288 5,500 2,880 Climbing Cleveland Center
11:17AM 42.8525 -78.6239 179° South 278 320 9,300 2,640 Climbing Cleveland Center
11:18AM 42.0109 -78.1971 154° Southeast  Level Estimated
11:18AM 42.7794 -78.6244 180° South 305 351 11,000  Level Cleveland Center
11:19AM 41.9034 -78.3853 142° Southeast  Level FlightAware Approximate
11:19AM 42.6503 -78.6239 180° South 381 438 14,400  Level Cleveland Center
11:20AM 42.5372 -78.6253 181° South 405 466 16,800 2,340 Climbing Cleveland Center
11:21AM 42.4189 -78.6261 180° South 420 483 19,200 2,220 Climbing Cleveland Center
11:22AM 42.2931 -78.6186 177° South 444 511 21,400 1,980 Climbing Cleveland Center
11:23AM 42.1892 -78.5081 142° Southeast 474 545 23,300 1,740 Climbing Cleveland Center
11:24AM 42.0861 -78.3858 139° Southeast 489 563 25,000 780 Climbing Cleveland Center
11:25AM 41.9589 -78.2364 139° Southeast 502 578 25,000  Level Cleveland Center
11:26AM 41.8533 -78.1106 138° Southeast 505 581 25,000  Level Cleveland Center
11:27AM 41.7489 -77.9864 138° Southeast 505 581 25,000  Level Cleveland Center
11:28AM 41.6439 -77.8625 139° Southeast 505 581 25,000  Level Cleveland Center
11:29AM 41.5392 -77.7397 139° Southeast 505 581 25,000 -180 Level Cleveland Center
11:30AM 41.4339 -77.6183 139° Southeast 504 580 24,700 -780 Descending Cleveland Center
11:31AM 41.3336 -77.5044 140° Southeast 482 555 23,500 -1,740 Descending Cleveland Center
11:32AM 41.2400 -77.3958 139° Southeast 455 524 21,200 -2,340 Descending Cleveland Center
11:33AM 41.1303 -77.2692 139° Southeast 438 504 18,700 -2,340 Descending Cleveland Center
11:34AM 41.0422 -77.1686 139° Southeast 424 488 16,500 -1,860 Descending Cleveland Center
11:35AM 40.9583 -77.0742 140° Southeast 405 466 15,000 -780 Descending Cleveland Center
11:36AM 40.8772 -76.9872 141° Southeast 404 465 15,000  Level New York Center
11:37AM 40.7869 -76.8831 139° Southeast 399 459 15,000  Level New York Center
11:38AM 40.7044 -76.7828 137° Southeast 399 459 15,000  Level New York Center
11:39AM 40.6339 -76.6972 137° Southeast 394 453 15,000  Level New York Center
11:40AM 40.5436 -76.5828 136° Southeast 394 453 15,000  Level New York Center
11:41AM 40.4864 -76.4744 125° Southeast 394 453 15,000  Level New York Center
11:42AM 40.3778 -76.4328 164° South 370 426 15,000 -300 Level New York Center
11:43AM 40.2706 -76.4511 187° South 375 432 14,500 -840 Descending New York Center
11:44AM 40.1678 -76.4672 187° South 383 441 13,400 -1,080 Descending New York Center
11:45AM 40.0794 -76.4844 188° South 378 435 12,400 -480 Descending New York Center
11:47AM 39.8667 -76.5333 190° South 345 397 12,000 -180 Descending Potomac TRACON
11:48AM 39.8281 -76.5511 199° South 345 397 12,000 -840 Level Washington Center
11:49AM 39.7267 -76.6083 203° Southwest 334 384 10,600 -1,380 Descending Washington Center
11:51AM 39.5722 -76.6908 202° Southwest 303 349 7,800 -1,380 Descending Washington Center
11:52AM 39.4983 -76.7311 203° Southwest 294 338 6,400 -1,260 Descending Washington Center
11:53AM 39.4278 -76.7714 204° Southwest 285 328 5,200 -1,200 Descending Washington Center
11:54AM 39.3667 -76.8256 214° Southwest 276 318 3,900 -1,080 Descending Washington Center
11:55AM 39.2922 -76.8789 209° Southwest 273 314 3,000 -540 Descending Washington Center
11:56AM 39.2311 -76.9081 200° South 250 288 2,900 -480 Descending Washington Center
11:57AM 39.1878 -76.8633 141° Southeast 240 276 2,000 -600 Descending Washington Center
11:58AM 39.1833 -76.8000 95° East 177 204 1,900 -540 Descending Potomac TRACON
11:59AM 39.1833 -76.7500 90° East 141 162 1,100 -780 Descending Potomac TRACON
12:00PM 39.1833 -76.7000 90° East 136 157 400 -720 Descending Potomac TRACON
12:03PM 39.1667 -76.6667 270° West  Level FlightAware Approximate